Time;durP1;ratioP1;P1;durP2;ratioP2;P2;SDS_P1;SDS_P2;PMS_P1;PMS_P2;Temp;Humidity;BMP_temperature;BMP_pressure;BME280_temperature;BME280_humidity;BME280_pressure;Samples;Min_cycle;Max_cycle;Signal;HPM_P1;HPM_P2
2023/03/31 00:00:52;;;;;;;15.95;11.80;;;11.70;99.90;;;;;;5057228;28;20219;-70
2023/03/31 00:03:42;;;;;;;17.08;12.05;;;11.70;99.90;;;;;;5058694;28;20939;-71
2023/03/31 00:06:36;;;;;;;17.25;12.13;;;11.60;99.90;;;;;;5037665;28;20334;-70
2023/03/31 00:09:28;;;;;;;18.52;11.93;;;11.60;99.90;;;;;;5040805;28;20252;-71
2023/03/31 00:12:17;;;;;;;17.75;11.95;;;11.70;99.90;;;;;;5045093;28;20221;-69
2023/03/31 00:15:07;;;;;;;17.08;11.80;;;11.70;99.90;;;;;;5052567;28;20224;-69
2023/03/31 00:17:59;;;;;;;16.15;12.40;;;11.60;99.90;;;;;;5044991;28;20235;-69
2023/03/31 00:20:48;;;;;;;16.30;11.40;;;11.60;99.90;;;;;;5054658;28;20216;-69
2023/03/31 00:23:37;;;;;;;14.93;11.05;;;11.60;99.90;;;;;;5064539;28;20224;-69
2023/03/31 00:26:26;;;;;;;15.55;11.60;;;11.60;99.90;;;;;;5043010;28;20268;-69
2023/03/31 00:29:15;;;;;;;14.68;10.98;;;11.70;99.90;;;;;;5056543;28;20228;-70
2023/03/31 00:32:04;;;;;;;16.02;11.30;;;11.70;99.90;;;;;;5054931;28;20453;-69
2023/03/31 00:35:04;;;;;;;15.10;10.90;;;11.80;99.90;;;;;;5046296;28;20213;-67
2023/03/31 00:37:56;;;;;;;13.80;10.90;;;11.80;99.90;;;;;;5043632;28;20220;-67
2023/03/31 00:40:47;;;;;;;17.30;11.38;;;11.80;99.90;;;;;;5041183;28;20227;-67
2023/03/31 00:43:37;;;;;;;13.50;10.40;;;11.80;99.90;;;;;;5034670;28;20236;-67
2023/03/31 00:46:32;;;;;;;14.88;10.93;;;11.80;99.90;;;;;;5024878;28;20229;-71
2023/03/31 00:49:28;;;;;;;14.32;10.88;;;11.80;99.90;;;;;;5041649;28;20362;-67
2023/03/31 00:52:26;;;;;;;15.82;11.07;;;11.80;99.90;;;;;;5046203;28;20231;-69
2023/03/31 00:55:18;;;;;;;15.85;11.43;;;11.80;99.90;;;;;;5054931;28;20247;-68
2023/03/31 00:58:08;;;;;;;14.65;10.38;;;11.90;99.90;;;;;;5058678;28;20309;-69
2023/03/31 01:00:58;;;;;;;17.65;11.15;;;11.90;99.90;;;;;;5060705;28;20323;-67
2023/03/31 01:03:49;;;;;;;13.43;10.38;;;11.70;99.90;;;;;;5056184;28;20271;-68
2023/03/31 01:06:45;;;;;;;15.00;9.77;;;11.70;99.90;;;;;;5041746;28;20235;-68
2023/03/31 01:09:38;;;;;;;15.05;10.52;;;11.70;99.90;;;;;;5045895;28;20222;-68
2023/03/31 01:12:28;;;;;;;11.80;9.48;;;11.80;99.90;;;;;;5030758;28;20328;-66
2023/03/31 01:15:17;;;;;;;13.05;9.00;;;11.70;99.90;;;;;;5063360;28;20239;-67
2023/03/31 01:18:08;;;;;;;12.45;9.20;;;11.80;99.90;;;;;;5045302;28;20227;-66
2023/03/31 01:21:46;;;;;;;12.73;9.63;;;11.70;99.90;;;;;;5033812;28;20675;-68
2023/03/31 01:25:11;;;;;;;11.70;9.25;;;11.70;99.90;;;;;;5039736;28;20236;-66
2023/03/31 01:28:12;;;;;;;13.68;9.63;;;11.70;99.90;;;;;;5055030;28;20213;-69
2023/03/31 01:31:44;;;;;;;12.63;10.02;;;11.70;99.90;;;;;;5057744;28;20638;-67
2023/03/31 01:35:15;;;;;;;12.13;9.70;;;11.60;99.90;;;;;;5044059;28;20315;-67
2023/03/31 01:38:48;;;;;;;15.60;10.52;;;11.70;99.90;;;;;;5031375;28;20608;-67
2023/03/31 01:41:53;;;;;;;16.17;9.55;;;11.70;99.90;;;;;;5058909;28;20291;-69
2023/03/31 01:44:52;;;;;;;11.93;9.77;;;11.60;99.90;;;;;;5059147;28;20713;-68
2023/03/31 01:47:45;;;;;;;13.30;10.77;;;11.50;99.90;;;;;;5044353;28;21102;-67
2023/03/31 01:50:38;;;;;;;11.35;9.30;;;11.60;99.90;;;;;;5051756;28;20222;-68
2023/03/31 01:53:35;;;;;;;13.73;10.10;;;11.60;99.90;;;;;;5028834;28;20675;-66
2023/03/31 01:56:31;;;;;;;12.65;10.02;;;11.60;99.90;;;;;;5023108;28;20225;-67
2023/03/31 01:59:27;;;;;;;12.73;9.75;;;11.50;99.90;;;;;;5043163;28;20253;-67
2023/03/31 02:02:20;;;;;;;10.85;9.68;;;11.50;99.90;;;;;;5059150;28;20239;-67
2023/03/31 02:05:14;;;;;;;15.30;9.93;;;11.50;99.90;;;;;;5054646;28;20370;-67
2023/03/31 02:08:06;;;;;;;10.60;9.10;;;11.50;99.90;;;;;;5056391;28;20893;-67
2023/03/31 02:10:57;;;;;;;13.73;9.65;;;11.50;99.90;;;;;;5048305;28;20231;-66
2023/03/31 02:13:47;;;;;;;13.05;9.25;;;11.50;99.90;;;;;;5058811;28;21141;-66
2023/03/31 02:16:46;;;;;;;13.85;9.73;;;11.60;99.90;;;;;;5046750;28;20232;-66
2023/03/31 02:19:39;;;;;;;15.00;10.07;;;11.50;99.90;;;;;;5068087;28;20319;-67
2023/03/31 02:22:33;;;;;;;12.55;9.85;;;11.60;99.90;;;;;;5028404;28;20236;-68
2023/03/31 02:25:26;;;;;;;11.85;9.20;;;11.60;99.90;;;;;;5032112;28;20650;-68
2023/03/31 02:28:20;;;;;;;12.00;9.38;;;11.60;99.90;;;;;;5061268;28;20226;-69
2023/03/31 02:31:22;;;;;;;13.98;9.45;;;11.60;99.90;;;;;;5045007;28;20228;-68
2023/03/31 02:34:12;;;;;;;11.80;9.20;;;11.50;99.90;;;;;;5044633;28;20240;-70
2023/03/31 02:37:02;;;;;;;13.85;9.93;;;11.50;99.90;;;;;;5060376;28;20238;-70
2023/03/31 02:39:54;;;;;;;12.07;9.27;;;11.50;99.90;;;;;;5049996;28;20259;-72
2023/03/31 02:42:44;;;;;;;14.02;9.35;;;11.50;99.90;;;;;;5058918;28;20220;-69
2023/03/31 02:45:45;;;;;;;13.35;9.07;;;11.40;99.90;;;;;;5054132;28;20232;-72
2023/03/31 02:48:37;;;;;;;10.20;8.77;;;11.60;99.90;;;;;;5037398;28;20221;-69
2023/03/31 02:51:50;;;;;;;13.95;9.77;;;11.60;99.90;;;;;;5059984;28;20227;-69
2023/03/31 02:55:04;;;;;;;11.90;9.18;;;11.50;99.90;;;;;;5047338;28;20706;-69
2023/03/31 02:58:17;;;;;;;11.57;9.45;;;11.50;99.90;;;;;;5032422;28;20220;-67
2023/03/31 03:01:37;;;;;;;11.35;9.50;;;11.50;99.90;;;;;;5039257;28;20233;-69
2023/03/31 03:04:43;;;;;;;14.23;9.40;;;11.50;99.90;;;;;;5053447;28;20221;-69
2023/03/31 03:07:38;;;;;;;11.82;8.98;;;11.40;99.90;;;;;;5035095;28;20287;-68
2023/03/31 03:10:35;;;;;;;11.93;9.35;;;11.40;99.90;;;;;;5033848;28;20416;-66
2023/03/31 03:13:32;;;;;;;12.32;9.50;;;11.40;99.90;;;;;;5039757;28;20223;-69
2023/03/31 03:16:26;;;;;;;11.73;9.25;;;11.40;99.90;;;;;;5046727;28;20792;-67
2023/03/31 03:19:20;;;;;;;12.88;10.35;;;11.50;99.90;;;;;;5044691;28;20236;-69
2023/03/31 03:22:10;;;;;;;13.18;10.02;;;11.40;99.90;;;;;;5040239;28;20310;-68
2023/03/31 03:25:00;;;;;;;14.13;9.98;;;11.50;99.90;;;;;;5050051;28;21037;-67
2023/03/31 03:27:51;;;;;;;12.27;9.95;;;11.40;99.90;;;;;;5038015;28;20224;-67
2023/03/31 03:30:43;;;;;;;11.13;10.02;;;11.40;99.90;;;;;;5067747;28;20221;-67
2023/03/31 03:33:32;;;;;;;10.48;9.38;;;11.30;99.90;;;;;;5036833;28;20715;-66
2023/03/31 03:36:22;;;;;;;17.50;9.85;;;11.30;99.90;;;;;;5056089;28;20225;-67
2023/03/31 03:39:11;;;;;;;11.13;9.95;;;11.40;99.90;;;;;;5043504;28;20228;-68
2023/03/31 03:42:02;;;;;;;12.88;9.73;;;11.40;99.90;;;;;;5042402;28;20721;-68
2023/03/31 03:44:51;;;;;;;11.73;9.70;;;11.40;99.90;;;;;;5061140;28;20224;-66
2023/03/31 03:47:43;;;;;;;15.15;10.18;;;11.30;99.90;;;;;;5037211;28;20308;-67
2023/03/31 03:50:36;;;;;;;12.85;10.25;;;11.20;99.90;;;;;;5042384;28;20230;-68
2023/03/31 03:53:25;;;;;;;11.85;9.68;;;11.30;99.90;;;;;;5044883;28;20459;-67
2023/03/31 03:56:14;;;;;;;11.95;9.93;;;11.40;99.90;;;;;;5056106;28;20234;-67
2023/03/31 03:59:04;;;;;;;13.77;9.75;;;11.30;99.90;;;;;;5061448;28;20277;-69
2023/03/31 04:01:53;;;;;;;14.13;10.85;;;11.20;99.90;;;;;;5055521;28;20236;-68
2023/03/31 04:04:42;;;;;;;12.65;10.00;;;11.10;99.90;;;;;;5033173;28;20714;-66
2023/03/31 04:07:31;;;;;;;16.20;10.50;;;11.10;99.90;;;;;;5046213;28;20285;-68
2023/03/31 04:10:20;;;;;;;15.07;10.68;;;11.10;99.90;;;;;;5054152;28;20330;-69
2023/03/31 04:13:08;;;;;;;14.38;10.65;;;11.00;99.90;;;;;;5034906;28;20236;-68
2023/03/31 04:15:59;;;;;;;14.27;11.15;;;11.00;99.90;;;;;;5031186;28;20270;-68
2023/03/31 04:18:47;;;;;;;12.65;10.48;;;10.90;99.90;;;;;;5032217;28;20708;-69
2023/03/31 04:21:43;;;;;;;13.30;11.48;;;10.90;99.90;;;;;;5045321;28;20608;-68
2023/03/31 04:24:32;;;;;;;12.73;10.90;;;10.90;99.90;;;;;;5026933;28;20225;-70
2023/03/31 04:27:21;;;;;;;15.25;10.95;;;10.90;99.90;;;;;;5058072;28;20572;-68
2023/03/31 04:30:11;;;;;;;14.90;10.80;;;10.90;99.90;;;;;;5056942;28;20225;-68
2023/03/31 04:33:05;;;;;;;15.20;11.32;;;11.00;99.90;;;;;;5072311;28;20703;-68
2023/03/31 04:35:54;;;;;;;13.93;11.20;;;10.90;99.90;;;;;;5062255;28;20225;-69
2023/03/31 04:38:46;;;;;;;14.88;10.60;;;11.00;99.90;;;;;;5048352;28;20223;-68
2023/03/31 04:41:35;;;;;;;13.13;10.80;;;11.00;99.90;;;;;;5047400;28;20247;-68
2023/03/31 04:44:24;;;;;;;17.33;10.95;;;11.00;99.90;;;;;;5060959;28;20303;-69
2023/03/31 04:47:13;;;;;;;13.45;10.55;;;10.90;99.90;;;;;;5063062;28;20224;-68
2023/03/31 04:50:05;;;;;;;14.82;11.30;;;10.90;99.90;;;;;;5046695;28;20299;-69
2023/03/31 04:52:57;;;;;;;15.02;11.60;;;10.80;99.90;;;;;;5059124;28;20311;-68
2023/03/31 04:55:46;;;;;;;14.35;11.35;;;10.80;99.90;;;;;;5041898;28;20938;-69
2023/03/31 04:58:35;;;;;;;16.88;11.90;;;10.90;99.90;;;;;;5040764;28;20917;-68
2023/03/31 05:01:37;;;;;;;15.85;11.88;;;11.00;99.90;;;;;;5035268;28;20234;-68
2023/03/31 05:04:28;;;;;;;16.85;11.80;;;11.00;99.90;;;;;;5043914;28;20227;-67
2023/03/31 05:07:19;;;;;;;15.35;12.35;;;11.10;99.90;;;;;;5057894;28;20246;-68
2023/03/31 05:10:09;;;;;;;16.80;11.98;;;11.10;99.90;;;;;;5052478;28;20603;-68
2023/03/31 05:12:58;;;;;;;16.60;12.57;;;11.00;99.90;;;;;;5059485;28;20790;-68
2023/03/31 05:15:51;;;;;;;18.38;12.85;;;11.20;99.90;;;;;;5040547;28;20224;-68
2023/03/31 05:18:41;;;;;;;14.95;11.73;;;11.30;99.90;;;;;;5061083;28;20829;-69
2023/03/31 05:21:30;;;;;;;16.88;12.88;;;11.30;99.90;;;;;;5054109;28;20313;-69
2023/03/31 05:24:21;;;;;;;15.63;13.20;;;11.40;99.90;;;;;;5064324;28;20305;-69
2023/03/31 05:27:10;;;;;;;18.75;14.15;;;11.50;99.90;;;;;;5040350;28;20233;-69
2023/03/31 05:29:59;;;;;;;19.17;14.35;;;11.50;99.90;;;;;;5053517;28;20231;-69
2023/03/31 05:32:48;;;;;;;23.30;15.15;;;11.40;99.90;;;;;;5037629;28;20618;-70
2023/03/31 05:35:37;;;;;;;19.42;16.48;;;11.50;99.90;;;;;;5058712;28;20222;-70
2023/03/31 05:38:27;;;;;;;31.85;23.50;;;11.50;99.90;;;;;;5053163;28;20220;-69
2023/03/31 05:41:18;;;;;;;26.08;21.20;;;11.50;99.90;;;;;;5053086;28;20225;-69
2023/03/31 05:44:08;;;;;;;20.98;17.15;;;11.50;99.90;;;;;;5055843;28;20265;-70
2023/03/31 05:46:57;;;;;;;21.25;15.98;;;11.50;99.90;;;;;;5039164;28;20236;-71
2023/03/31 05:49:46;;;;;;;23.20;18.08;;;11.60;99.90;;;;;;5040451;28;20232;-69
2023/03/31 05:52:35;;;;;;;23.42;15.80;;;11.70;99.90;;;;;;5050710;28;20225;-74
2023/03/31 05:55:24;;;;;;;25.58;15.40;;;11.70;99.90;;;;;;5032602;28;20307;-74
2023/03/31 05:58:14;;;;;;;40.10;29.42;;;11.70;99.90;;;;;;5058418;28;20342;-75
2023/03/31 06:01:06;;;;;;;18.40;14.23;;;11.70;99.90;;;;;;5049739;28;20692;-73
2023/03/31 06:03:57;;;;;;;16.42;14.32;;;11.70;99.90;;;;;;5043385;28;20239;-73
2023/03/31 06:06:49;;;;;;;17.45;13.90;;;11.60;99.90;;;;;;5044683;28;20232;-72
2023/03/31 06:09:38;;;;;;;17.35;14.45;;;11.60;99.90;;;;;;5059038;28;20311;-71
2023/03/31 06:12:27;;;;;;;19.80;13.50;;;11.60;99.90;;;;;;5055185;28;20252;-68
2023/03/31 06:15:17;;;;;;;19.25;14.95;;;11.60;99.90;;;;;;5021825;28;20224;-69
2023/03/31 06:18:09;;;;;;;17.75;13.88;;;11.60;99.90;;;;;;5056580;28;20254;-67
2023/03/31 06:20:58;;;;;;;21.73;14.75;;;11.80;99.90;;;;;;5058074;28;20224;-69
2023/03/31 06:23:48;;;;;;;22.35;14.57;;;11.90;99.90;;;;;;5058748;27;20342;-68
2023/03/31 06:26:37;;;;;;;18.73;15.15;;;12.00;99.90;;;;;;5036462;28;20315;-69
2023/03/31 06:29:26;;;;;;;21.15;15.18;;;12.10;99.90;;;;;;5054798;28;20229;-69
2023/03/31 06:32:16;;;;;;;17.98;14.48;;;12.20;99.90;;;;;;5034986;28;20226;-70
2023/03/31 06:35:06;;;;;;;20.30;14.90;;;12.30;99.90;;;;;;5019167;28;20229;-69
2023/03/31 06:37:55;;;;;;;17.02;13.60;;;12.30;99.90;;;;;;5060652;28;20255;-70
2023/03/31 06:40:44;;;;;;;20.25;14.35;;;12.40;99.90;;;;;;5032520;28;20738;-69
2023/03/31 06:43:32;;;;;;;18.63;13.95;;;12.50;99.90;;;;;;5038305;28;20757;-72
2023/03/31 06:46:21;;;;;;;16.02;14.18;;;12.50;99.90;;;;;;5036923;28;20256;-71
2023/03/31 06:49:12;;;;;;;21.50;14.45;;;12.40;99.90;;;;;;5046932;28;20231;-72
2023/03/31 06:52:02;;;;;;;17.92;13.98;;;12.40;99.90;;;;;;5044145;28;20235;-72
2023/03/31 06:54:51;;;;;;;17.55;14.00;;;12.50;99.90;;;;;;5059429;28;20246;-74
2023/03/31 06:57:43;;;;;;;17.83;14.45;;;12.50;99.90;;;;;;5056993;28;20242;-73
2023/03/31 07:00:33;;;;;;;19.92;13.45;;;12.50;99.90;;;;;;5043958;28;20224;-72
2023/03/31 07:03:23;;;;;;;16.15;13.73;;;12.50;99.90;;;;;;5060185;28;20231;-73
2023/03/31 07:06:14;;;;;;;18.20;14.25;;;12.70;99.90;;;;;;5056400;28;20235;-70
2023/03/31 07:09:08;;;;;;;16.75;14.20;;;12.80;99.90;;;;;;5056267;28;20216;-74
2023/03/31 07:11:56;;;;;;;18.20;14.27;;;12.80;99.90;;;;;;5039480;28;20228;-74
2023/03/31 07:14:45;;;;;;;17.05;14.90;;;13.00;99.90;;;;;;5044627;28;20764;-73
2023/03/31 07:17:36;;;;;;;17.45;14.52;;;12.90;99.90;;;;;;5054431;28;20225;-74
2023/03/31 07:20:25;;;;;;;20.10;15.45;;;12.80;99.90;;;;;;5058542;28;20226;-74
2023/03/31 07:23:15;;;;;;;19.17;15.48;;;12.90;99.90;;;;;;5021744;28;20229;-70
2023/03/31 07:26:07;;;;;;;18.45;15.48;;;13.20;99.90;;;;;;5033747;28;20244;-73
2023/03/31 07:28:56;;;;;;;17.83;15.20;;;13.30;99.90;;;;;;5020226;28;20221;-72
2023/03/31 07:31:47;;;;;;;19.02;15.55;;;13.70;99.90;;;;;;5053633;28;20212;-72
2023/03/31 07:34:37;;;;;;;17.88;15.80;;;13.90;99.90;;;;;;5052406;28;20221;-73
2023/03/31 07:37:27;;;;;;;21.27;16.52;;;13.90;99.90;;;;;;5050330;28;21031;-71
2023/03/31 07:40:20;;;;;;;21.88;16.35;;;13.80;99.90;;;;;;5042767;28;20663;-72
2023/03/31 07:43:10;;;;;;;21.83;16.10;;;13.80;99.90;;;;;;5053707;28;20233;-70
2023/03/31 07:45:59;;;;;;;19.90;16.65;;;13.60;99.90;;;;;;5040037;28;20264;-72
2023/03/31 07:48:49;;;;;;;18.58;16.58;;;13.60;99.90;;;;;;5028131;28;20592;-71
2023/03/31 07:51:38;;;;;;;21.63;16.95;;;13.70;99.90;;;;;;5036045;28;20328;-71
2023/03/31 07:54:27;;;;;;;23.08;16.65;;;13.80;99.90;;;;;;5062704;28;20208;-71
2023/03/31 07:57:19;;;;;;;21.60;16.77;;;13.60;99.90;;;;;;5036570;28;20943;-72
2023/03/31 08:00:11;;;;;;;22.23;16.63;;;13.90;99.90;;;;;;5045053;28;20236;-72
2023/03/31 08:03:00;;;;;;;23.45;16.55;;;13.80;99.90;;;;;;5058171;28;20224;-71
2023/03/31 08:05:51;;;;;;;19.27;15.65;;;13.90;99.90;;;;;;5044709;28;21040;-71
2023/03/31 08:08:42;;;;;;;19.85;15.48;;;13.80;99.90;;;;;;5038137;28;20258;-74
2023/03/31 08:11:32;;;;;;;19.05;15.48;;;13.90;99.90;;;;;;5055355;28;20238;-75
2023/03/31 08:14:22;;;;;;;16.75;14.57;;;13.80;99.90;;;;;;5029448;28;20224;-72
2023/03/31 08:17:28;;;;;;;19.83;14.38;;;13.80;99.90;;;;;;5061250;28;20247;-72
2023/03/31 08:20:17;;;;;;;17.70;14.25;;;13.80;99.90;;;;;;5054642;28;20228;-72
2023/03/31 08:23:08;;;;;;;17.25;14.65;;;13.80;99.90;;;;;;5039939;28;20300;-71
2023/03/31 08:26:11;;;;;;;17.48;14.02;;;13.80;99.90;;;;;;5037043;28;20313;-71
2023/03/31 08:29:09;;;;;;;18.90;13.70;;;13.80;99.90;;;;;;5024537;28;20700;-71
2023/03/31 08:31:59;;;;;;;16.73;13.82;;;13.90;99.90;;;;;;5034796;28;20251;-72
2023/03/31 08:34:48;;;;;;;19.00;14.45;;;13.70;99.90;;;;;;5040238;28;20229;-71
2023/03/31 08:37:38;;;;;;;17.35;13.82;;;13.70;99.90;;;;;;5036577;28;20711;-73
2023/03/31 08:40:30;;;;;;;17.70;13.63;;;13.80;99.90;;;;;;5035412;28;20333;-71
2023/03/31 08:43:27;;;;;;;13.55;11.27;;;13.60;99.90;;;;;;5032187;28;20974;-72
2023/03/31 08:46:18;;;;;;;20.17;10.57;;;13.50;99.90;;;;;;5033002;28;20221;-71
2023/03/31 08:49:14;;;;;;;17.60;10.63;;;13.70;99.90;;;;;;5050976;28;20233;-70
2023/03/31 08:52:06;;;;;;;14.77;10.13;;;13.80;99.90;;;;;;5046537;28;20862;-71
2023/03/31 08:54:58;;;;;;;15.10;9.98;;;14.00;99.90;;;;;;5036643;28;20240;-71
2023/03/31 08:57:56;;;;;;;14.20;10.60;;;14.10;99.90;;;;;;5049969;28;20329;-73
2023/03/31 09:00:52;;;;;;;13.10;10.30;;;14.40;99.90;;;;;;5053421;28;20691;-73
2023/03/31 09:03:56;;;;;;;14.70;10.52;;;14.80;99.90;;;;;;5059466;28;20220;-72
2023/03/31 09:06:58;;;;;;;19.10;11.77;;;14.40;99.90;;;;;;5023406;28;20307;-73
2023/03/31 09:09:55;;;;;;;14.38;10.20;;;14.50;99.90;;;;;;5055958;28;20812;-69
2023/03/31 09:12:50;;;;;;;14.25;9.23;;;14.90;99.90;;;;;;5057331;28;20335;-73
2023/03/31 09:15:44;;;;;;;15.25;9.57;;;15.30;99.90;;;;;;5039331;28;20602;-71
2023/03/31 09:18:35;;;;;;;12.50;8.75;;;14.80;99.90;;;;;;5049588;28;20312;-71
2023/03/31 09:21:30;;;;;;;14.60;8.90;;;14.80;99.90;;;;;;5064742;28;20242;-72
2023/03/31 09:24:27;;;;;;;13.88;9.00;;;14.90;99.90;;;;;;5051180;28;20232;-72
2023/03/31 09:27:20;;;;;;;10.70;8.55;;;14.90;99.90;;;;;;5051747;28;20312;-72
2023/03/31 09:30:16;;;;;;;11.85;8.52;;;15.00;99.90;;;;;;5044278;28;20241;-73
2023/03/31 09:33:14;;;;;;;14.38;8.35;;;15.40;99.90;;;;;;5057150;28;20845;-73
2023/03/31 09:36:14;;;;;;;9.85;6.68;;;15.40;99.90;;;;;;5045012;28;20293;-72
2023/03/31 09:39:03;;;;;;;14.38;8.55;;;15.50;99.90;;;;;;5057429;28;20393;-71
2023/03/31 09:41:54;;;;;;;17.80;8.73;;;15.60;99.90;;;;;;5054991;28;20244;-72
2023/03/31 09:44:45;;;;;;;15.32;8.13;;;15.50;99.90;;;;;;5025952;28;20839;-72
2023/03/31 09:47:39;;;;;;;11.57;7.45;;;15.60;99.90;;;;;;5051303;28;20216;-72
2023/03/31 09:50:30;;;;;;;13.85;7.30;;;15.70;99.90;;;;;;5036593;28;20239;-71
2023/03/31 09:53:25;;;;;;;11.07;7.28;;;15.50;99.90;;;;;;5054457;28;20224;-71
2023/03/31 09:56:33;;;;;;;9.82;6.10;;;15.30;99.90;;;;;;5055723;28;20758;-72
2023/03/31 09:59:34;;;;;;;13.48;6.57;;;15.40;99.90;;;;;;5062697;28;20703;-72
2023/03/31 10:02:34;;;;;;;14.52;6.93;;;15.40;99.90;;;;;;5053620;28;20232;-73
2023/03/31 10:05:30;;;;;;;11.07;6.05;;;15.10;99.90;;;;;;5047210;28;20780;-72
2023/03/31 10:08:26;;;;;;;11.48;6.80;;;15.20;99.90;;;;;;5031223;28;20780;-73
2023/03/31 10:11:16;;;;;;;10.68;5.75;;;15.30;99.90;;;;;;5062705;28;20324;-69
2023/03/31 10:14:12;;;;;;;9.32;5.70;;;15.30;99.90;;;;;;5052466;28;20379;-73
2023/03/31 10:17:06;;;;;;;10.45;4.90;;;15.60;99.90;;;;;;5050404;28;20212;-73
2023/03/31 10:19:58;;;;;;;11.07;4.88;;;15.90;99.90;;;;;;5045764;28;20256;-72
2023/03/31 10:22:47;;;;;;;10.27;4.78;;;16.20;99.90;;;;;;5039092;28;20228;-72
2023/03/31 10:25:36;;;;;;;9.80;5.25;;;16.20;99.90;;;;;;5041283;28;20846;-72
2023/03/31 10:28:29;;;;;;;10.65;4.47;;;16.20;99.90;;;;;;5025562;28;20237;-70
2023/03/31 10:31:19;;;;;;;11.05;4.80;;;15.90;99.90;;;;;;5064304;28;20236;-71
2023/03/31 10:34:15;;;;;;;12.65;6.05;;;16.10;99.90;;;;;;5056565;28;20350;-71
2023/03/31 10:37:06;;;;;;;7.93;4.20;;;16.20;99.90;;;;;;5035386;28;20213;-71
2023/03/31 10:39:58;;;;;;;10.75;4.78;;;16.30;99.90;;;;;;5050983;28;20795;-71
2023/03/31 10:42:58;;;;;;;8.55;4.18;;;16.20;99.90;;;;;;5045560;28;20216;-72
2023/03/31 10:45:49;;;;;;;8.60;4.00;;;16.00;99.90;;;;;;5057484;28;20236;-72
2023/03/31 10:48:40;;;;;;;10.15;3.65;;;15.70;99.90;;;;;;5047176;28;20233;-71
2023/03/31 10:51:30;;;;;;;7.72;4.00;;;15.70;99.90;;;;;;5056301;28;20220;-72
2023/03/31 10:54:20;;;;;;;10.93;4.10;;;15.80;99.90;;;;;;5060118;28;20599;-72
2023/03/31 10:57:09;;;;;;;9.50;4.35;;;15.70;99.90;;;;;;5052827;28;21016;-72
2023/03/31 11:00:16;;;;;;;9.55;4.03;;;16.00;99.90;;;;;;5041749;28;20278;-72
2023/03/31 11:03:30;;;;;;;10.32;3.85;;;16.10;99.90;;;;;;5033063;28;20224;-71
2023/03/31 11:06:26;;;;;;;9.23;3.60;;;16.10;99.90;;;;;;5032754;28;20298;-71
2023/03/31 11:09:43;;;;;;;10.50;4.20;;;16.00;99.90;;;;;;5052278;28;20224;-71
2023/03/31 11:12:39;;;;;;;7.13;2.97;;;16.10;99.90;;;;;;5049119;28;21614;-72
2023/03/31 11:15:41;;;;;;;8.63;3.40;;;16.10;99.90;;;;;;5056369;28;20304;-71
2023/03/31 11:18:40;;;;;;;8.73;3.58;;;16.00;99.90;;;;;;5024821;28;20310;-72
2023/03/31 11:21:40;;;;;;;10.27;3.80;;;16.00;99.90;;;;;;5039530;28;20227;-68
2023/03/31 11:24:44;;;;;;;11.23;3.63;;;16.10;99.90;;;;;;5041956;28;20224;-71
2023/03/31 11:27:43;;;;;;;11.52;4.05;;;16.00;99.90;;;;;;5049649;28;20598;-72
2023/03/31 11:30:38;;;;;;;10.45;3.65;;;16.10;99.90;;;;;;5035443;28;20232;-72
2023/03/31 11:33:39;;;;;;;11.18;3.92;;;16.50;99.90;;;;;;5057736;28;20362;-72
2023/03/31 11:36:40;;;;;;;8.23;4.10;;;16.30;99.90;;;;;;5040127;28;20307;-71
2023/03/31 11:39:45;;;;;;;10.50;3.35;;;16.20;99.90;;;;;;5043025;28;20232;-71
2023/03/31 11:42:38;;;;;;;7.43;3.35;;;16.50;99.90;;;;;;5045061;28;20223;-71
2023/03/31 11:45:32;;;;;;;8.00;3.40;;;16.50;99.90;;;;;;5046466;28;20238;-71
2023/03/31 11:48:31;;;;;;;9.73;4.00;;;16.60;99.90;;;;;;5045374;28;20227;-71
2023/03/31 11:51:24;;;;;;;8.43;3.85;;;16.90;99.90;;;;;;5054051;28;20233;-71
2023/03/31 11:54:18;;;;;;;7.07;3.60;;;16.90;99.90;;;;;;5053196;28;20304;-71
2023/03/31 11:57:13;;;;;;;7.20;3.90;;;17.00;99.90;;;;;;5024624;28;20278;-70
2023/03/31 12:00:10;;;;;;;6.90;3.75;;;16.80;99.90;;;;;;5069215;28;20220;-72
2023/03/31 12:03:07;;;;;;;7.55;3.80;;;16.80;99.90;;;;;;5053693;28;20229;-71
2023/03/31 12:06:02;;;;;;;8.30;3.58;;;16.80;99.90;;;;;;5033474;28;20358;-72
2023/03/31 12:09:06;;;;;;;8.75;4.10;;;16.90;99.90;;;;;;5050562;28;20591;-71
2023/03/31 12:12:01;;;;;;;10.18;3.65;;;16.90;99.90;;;;;;5055452;28;20719;-71
2023/03/31 12:14:55;;;;;;;7.38;3.78;;;16.80;99.90;;;;;;5071967;28;20227;-71
2023/03/31 12:17:48;;;;;;;13.25;4.70;;;16.90;99.90;;;;;;5057867;28;20232;-72
2023/03/31 12:20:41;;;;;;;10.82;4.25;;;17.10;99.90;;;;;;5064166;28;20263;-71
2023/03/31 12:23:37;;;;;;;11.93;4.25;;;17.40;99.90;;;;;;5042418;28;20619;-71
2023/03/31 12:26:37;;;;;;;11.75;4.20;;;17.40;99.90;;;;;;5049728;28;20237;-72
2023/03/31 12:29:31;;;;;;;9.13;4.22;;;17.50;99.90;;;;;;5052384;28;20224;-71
2023/03/31 12:32:24;;;;;;;11.77;4.00;;;17.50;99.90;;;;;;5048740;28;20286;-71
2023/03/31 12:35:20;;;;;;;8.52;4.22;;;17.50;99.90;;;;;;5057479;28;20228;-71
2023/03/31 12:38:29;;;;;;;7.43;3.95;;;17.50;99.90;;;;;;5036691;28;20246;-71
2023/03/31 12:41:25;;;;;;;9.32;4.05;;;17.40;99.90;;;;;;5041196;28;20228;-72
2023/03/31 12:44:44;;;;;;;9.35;4.25;;;16.90;99.90;;;;;;5056953;28;20217;-72
2023/03/31 12:48:03;;;;;;;8.52;3.58;;;16.60;99.90;;;;;;5048131;28;20270;-71
2023/03/31 12:51:03;;;;;;;9.00;3.92;;;16.60;99.90;;;;;;5039780;28;20228;-71
2023/03/31 12:54:05;;;;;;;8.43;4.05;;;16.70;99.90;;;;;;5051687;28;20233;-69
2023/03/31 12:57:05;;;;;;;9.80;4.30;;;16.50;99.90;;;;;;5054552;28;20224;-70
2023/03/31 13:00:19;;;;;;;30.33;5.05;;;16.50;99.90;;;;;;5055200;28;21041;-71
2023/03/31 13:03:39;;;;;;;8.77;3.70;;;16.30;99.90;;;;;;5059349;28;20255;-72
2023/03/31 13:06:55;;;;;;;17.77;4.30;;;16.50;99.90;;;;;;5048464;28;20817;-71
2023/03/31 13:09:52;;;;;;;30.55;4.55;;;16.80;99.90;;;;;;5021592;28;20245;-72
2023/03/31 13:12:42;;;;;;;20.65;4.25;;;17.00;99.90;;;;;;5055573;28;20660;-72
2023/03/31 13:15:32;;;;;;;11.45;4.60;;;17.00;99.90;;;;;;5060979;28;20238;-70
2023/03/31 13:18:23;;;;;;;356.45;88.55;;;16.90;99.90;;;;;;5046705;28;20233;-71
2023/03/31 13:21:12;;;;;;;16.63;5.13;;;16.90;99.90;;;;;;5045080;28;20221;-72
2023/03/31 13:24:07;;;;;;;6.82;2.83;;;16.90;99.90;;;;;;5032541;28;20229;-71
2023/03/31 13:26:58;;;;;;;9.90;3.42;;;16.80;99.90;;;;;;5026202;28;20290;-71
2023/03/31 13:29:47;;;;;;;8.10;3.13;;;16.60;99.90;;;;;;5031410;28;20225;-71
2023/03/31 13:32:39;;;;;;;10.88;3.53;;;16.60;99.90;;;;;;5044250;28;20955;-71
2023/03/31 13:35:32;;;;;;;7.82;3.53;;;16.40;99.90;;;;;;5061781;28;20254;-71
2023/03/31 13:38:34;;;;;;;17.50;4.10;;;16.20;99.90;;;;;;5049767;28;20238;-71
2023/03/31 13:41:36;;;;;;;19.80;4.25;;;16.00;99.90;;;;;;5044953;28;20246;-71
2023/03/31 13:44:49;;;;;;;12.00;4.63;;;15.70;99.90;;;;;;5048009;28;20284;-71
2023/03/31 13:48:04;;;;;;;9.70;3.75;;;15.60;99.90;;;;;;5061485;28;20212;-71
2023/03/31 13:51:18;;;;;;;10.60;3.75;;;15.70;99.90;;;;;;5065796;28;20289;-72
2023/03/31 13:54:44;;;;;;;6.22;3.22;;;15.90;99.90;;;;;;5069018;28;20228;-72
2023/03/31 13:57:58;;;;;;;10.07;4.22;;;15.80;99.90;;;;;;5037612;28;20213;-71
2023/03/31 14:00:54;;;;;;;9.25;3.70;;;16.00;99.90;;;;;;5039625;28;20232;-72
2023/03/31 14:03:59;;;;;;;8.02;3.60;;;16.00;99.90;;;;;;5055057;28;20240;-71
2023/03/31 14:06:53;;;;;;;5.85;3.05;;;16.10;99.90;;;;;;5053457;28;20224;-72
2023/03/31 14:09:48;;;;;;;7.90;2.65;;;16.00;99.90;;;;;;5065724;28;20294;-74
2023/03/31 14:12:39;;;;;;;8.55;2.70;;;16.10;99.90;;;;;;5064146;28;20235;-72
2023/03/31 14:15:30;;;;;;;7.40;3.05;;;16.10;99.90;;;;;;5037700;28;20229;-70
2023/03/31 14:18:24;;;;;;;8.20;3.22;;;16.30;99.90;;;;;;5043185;28;20508;-71
2023/03/31 14:21:21;;;;;;;6.00;3.10;;;16.50;99.90;;;;;;5043885;28;20440;-74
2023/03/31 14:24:20;;;;;;;6.05;2.95;;;16.40;99.90;;;;;;5048997;28;20467;-72
2023/03/31 14:27:24;;;;;;;6.47;3.03;;;16.30;99.90;;;;;;5042645;28;20224;-73
2023/03/31 14:30:30;;;;;;;6.45;3.38;;;16.20;99.90;;;;;;5048076;28;20247;-75
2023/03/31 14:33:34;;;;;;;6.20;2.85;;;16.10;99.90;;;;;;5055448;28;20644;-75
2023/03/31 14:36:32;;;;;;;7.18;3.00;;;16.00;99.90;;;;;;5063607;28;20761;-77
2023/03/31 14:39:22;;;;;;;7.40;2.80;;;16.00;99.90;;;;;;5064397;28;20221;-74
2023/03/31 14:42:13;;;;;;;7.03;2.70;;;16.00;99.90;;;;;;5026285;28;20221;-76
2023/03/31 14:45:08;;;;;;;8.63;3.35;;;15.90;99.90;;;;;;5065107;28;20224;-75
2023/03/31 14:48:03;;;;;;;7.80;2.80;;;15.90;99.90;;;;;;5056523;28;20330;-75
2023/03/31 14:50:58;;;;;;;9.13;5.00;;;15.90;99.90;;;;;;5054359;28;20236;-72
2023/03/31 14:53:47;;;;;;;13.30;9.00;;;15.90;99.90;;;;;;5065089;28;20277;-72